Time;durP1;ratioP1;P1;durP2;ratioP2;P2;SDS_P1;SDS_P2;PMS_P1;PMS_P2;Temp;Humidity;BMP_temperature;BMP_pressure;BME280_temperature;BME280_humidity;BME280_pressure;Samples;Min_cycle;Max_cycle;Signal;HPM_P1;HPM_P2
2023/07/29 00:00:43;;;;;;;0.45;0.30;;;18.80;99.90;;;;;;5113583;28;20086;-67
2023/07/29 00:03:09;;;;;;;0.45;0.45;;;18.90;99.90;;;;;;5113975;28;20489;-67
2023/07/29 00:05:36;;;;;;;1.25;0.47;;;18.60;99.90;;;;;;5113319;28;20120;-66
2023/07/29 00:08:02;;;;;;;0.68;0.68;;;18.50;99.90;;;;;;5113650;28;20051;-65
2023/07/29 00:10:28;;;;;;;0.77;0.77;;;18.50;99.90;;;;;;5112487;28;20048;-66
2023/07/29 00:12:54;;;;;;;0.30;0.30;;;18.80;99.90;;;;;;5113361;28;20407;-67
2023/07/29 00:15:20;;;;;;;0.60;0.60;;;18.40;99.90;;;;;;5112902;28;20048;-67
2023/07/29 00:17:45;;;;;;;0.77;0.77;;;18.40;99.90;;;;;;5113623;28;20075;-66
2023/07/29 00:20:11;;;;;;;0.40;0.40;;;18.70;99.90;;;;;;5113930;28;20122;-66
2023/07/29 00:22:37;;;;;;;0.30;0.30;;;18.60;99.90;;;;;;5113709;28;20048;-66
2023/07/29 00:25:02;;;;;;;0.65;0.65;;;18.00;99.90;;;;;;5112667;28;20181;-66
2023/07/29 00:27:28;;;;;;;0.55;0.20;;;18.50;99.90;;;;;;5113653;28;20524;-65
2023/07/29 00:29:54;;;;;;;1.27;0.30;;;18.60;99.90;;;;;;5112332;28;20044;-68
2023/07/29 00:32:19;;;;;;;0.32;0.32;;;18.20;99.90;;;;;;5113630;28;20052;-66
2023/07/29 00:34:45;;;;;;;4.18;1.02;;;18.10;99.90;;;;;;5113796;28;20545;-66
2023/07/29 00:37:12;;;;;;;0.13;0.13;;;18.60;99.90;;;;;;5113188;28;20079;-66
2023/07/29 00:39:37;;;;;;;1.48;0.75;;;18.70;99.90;;;;;;5113765;28;20104;-65
2023/07/29 00:42:04;;;;;;;0.50;0.50;;;18.90;99.90;;;;;;5113646;28;20051;-66
2023/07/29 00:44:31;;;;;;;1.13;0.63;;;18.50;99.90;;;;;;5112716;28;20051;-67
2023/07/29 00:46:58;;;;;;;1.15;0.45;;;18.30;99.90;;;;;;5113539;28;20491;-66
2023/07/29 00:49:24;;;;;;;0.30;0.30;;;18.60;99.90;;;;;;5113278;28;20058;-66
2023/07/29 00:51:50;;;;;;;0.52;0.20;;;18.30;99.90;;;;;;5112722;28;20047;-67
2023/07/29 00:54:16;;;;;;;0.10;0.10;;;18.40;99.90;;;;;;5113361;28;20048;-68
2023/07/29 00:56:42;;;;;;;0.10;0.10;;;18.50;99.90;;;;;;5113206;28;20047;-66
2023/07/29 00:59:08;;;;;;;0.40;0.40;;;18.40;99.90;;;;;;5111570;28;20127;-66
2023/07/29 01:01:34;;;;;;;0.30;0.30;;;18.50;99.90;;;;;;5113152;28;20101;-66
2023/07/29 01:04:00;;;;;;;1.55;0.38;;;18.30;99.90;;;;;;5113067;28;20047;-66
2023/07/29 01:06:53;;;;;;;1.58;0.50;;;18.70;99.90;;;;;;5112668;28;20137;-68
2023/07/29 01:09:43;;;;;;;0.32;0.32;;;18.30;99.90;;;;;;5113201;28;20100;-66
2023/07/29 01:12:14;;;;;;;0.85;0.85;;;18.30;99.90;;;;;;5112252;28;20043;-65
2023/07/29 01:15:11;;;;;;;0.15;0.15;;;18.30;99.90;;;;;;5111592;28;20039;-66
2023/07/29 01:17:44;;;;;;;0.55;0.50;;;18.20;99.90;;;;;;5112971;28;20108;-67
2023/07/29 01:20:15;;;;;;;1.10;0.50;;;18.20;99.90;;;;;;5111634;28;20087;-65
2023/07/29 01:22:41;;;;;;;1.10;1.00;;;18.00;99.90;;;;;;5112710;28;20082;-66
2023/07/29 01:25:07;;;;;;;0.10;0.10;;;18.20;99.90;;;;;;5112526;28;20044;-67
2023/07/29 01:27:33;;;;;;;1.38;0.40;;;18.00;99.90;;;;;;5112162;27;20047;-66
2023/07/29 01:30:00;;;;;;;0.25;0.25;;;17.90;99.90;;;;;;5112841;28;20039;-65
2023/07/29 01:32:50;;;;;;;0.40;0.22;;;17.90;99.90;;;;;;5112504;28;20052;-66
2023/07/29 01:35:31;;;;;;;0.75;0.75;;;18.20;99.90;;;;;;5112411;28;20047;-67
2023/07/29 01:38:16;;;;;;;1.38;0.30;;;17.90;99.90;;;;;;5111990;28;20417;-66
2023/07/29 01:40:43;;;;;;;0.30;0.30;;;17.70;99.90;;;;;;5111290;28;20048;-66
2023/07/29 01:43:10;;;;;;;1.08;0.82;;;17.50;99.90;;;;;;5111762;28;20047;-66
2023/07/29 01:45:38;;;;;;;0.88;0.88;;;17.60;99.90;;;;;;5112066;28;20039;-66
2023/07/29 01:48:05;;;;;;;0.73;0.73;;;17.80;99.90;;;;;;5112063;28;20483;-67
2023/07/29 01:50:34;;;;;;;1.00;0.32;;;17.70;99.90;;;;;;5110520;28;20403;-67
2023/07/29 01:53:00;;;;;;;0.50;0.50;;;17.80;99.90;;;;;;5112002;28;20457;-66
2023/07/29 01:55:26;;;;;;;0.45;0.45;;;17.70;99.90;;;;;;5112407;27;20048;-66
2023/07/29 01:57:51;;;;;;;0.30;0.30;;;18.20;99.90;;;;;;5111418;28;20069;-67
2023/07/29 02:00:18;;;;;;;0.60;0.60;;;17.70;99.90;;;;;;5112224;28;20043;-66
2023/07/29 02:02:44;;;;;;;0.60;0.60;;;17.90;99.90;;;;;;5111824;28;20051;-68
2023/07/29 02:05:10;;;;;;;1.40;0.63;;;17.60;99.90;;;;;;5111629;28;20181;-66
2023/07/29 02:07:35;;;;;;;0.40;0.40;;;17.40;99.90;;;;;;5111763;28;20070;-69
2023/07/29 02:10:01;;;;;;;0.70;0.70;;;17.40;99.90;;;;;;5111698;28;20109;-67
2023/07/29 02:12:27;;;;;;;1.23;0.85;;;17.40;99.90;;;;;;5111213;28;20132;-65
2023/07/29 02:14:53;;;;;;;1.15;1.05;;;17.00;99.90;;;;;;5111785;28;20047;-66
2023/07/29 02:17:18;;;;;;;0.57;0.30;;;17.00;99.90;;;;;;5112166;28;20055;-66
2023/07/29 02:19:44;;;;;;;0.40;0.20;;;17.40;99.90;;;;;;5111183;28;20047;-67
2023/07/29 02:22:14;;;;;;;0.60;0.60;;;17.50;99.90;;;;;;5111850;28;20541;-67
2023/07/29 02:24:39;;;;;;;1.33;0.70;;;17.40;99.90;;;;;;5111620;28;20070;-66
2023/07/29 02:27:05;;;;;;;0.80;0.68;;;17.00;99.90;;;;;;5111369;28;20495;-67
2023/07/29 02:29:32;;;;;;;0.75;0.75;;;17.10;99.90;;;;;;5111696;28;20078;-66
2023/07/29 02:31:59;;;;;;;0.65;0.65;;;17.10;99.90;;;;;;5113155;28;20201;-66
2023/07/29 02:34:24;;;;;;;0.77;0.77;;;17.40;99.90;;;;;;5115533;28;20051;-67
2023/07/29 02:36:50;;;;;;;1.88;0.77;;;17.10;99.90;;;;;;5115890;28;20155;-66
2023/07/29 02:39:16;;;;;;;1.55;1.25;;;17.60;99.90;;;;;;5115956;28;20098;-69
2023/07/29 02:41:41;;;;;;;0.15;0.15;;;17.50;99.90;;;;;;5115104;28;20117;-68
2023/07/29 02:44:07;;;;;;;0.45;0.40;;;17.30;99.90;;;;;;5115721;28;20127;-66
2023/07/29 02:46:33;;;;;;;0.22;0.22;;;17.70;99.90;;;;;;5115594;27;20110;-66
2023/07/29 02:48:59;;;;;;;1.33;1.23;;;17.40;99.90;;;;;;5115196;28;20047;-66
2023/07/29 02:51:24;;;;;;;1.75;0.80;;;17.60;99.90;;;;;;5115621;28;20039;-66
2023/07/29 02:53:50;;;;;;;0.73;0.73;;;17.30;99.90;;;;;;5114158;28;20053;-67
2023/07/29 02:56:16;;;;;;;0.38;0.38;;;16.90;99.90;;;;;;5115183;28;20182;-65
2023/07/29 02:58:42;;;;;;;0.32;0.32;;;17.50;99.90;;;;;;5115411;28;20438;-66
2023/07/29 03:01:07;;;;;;;0.65;0.65;;;17.30;99.90;;;;;;5115698;28;20100;-66
2023/07/29 03:03:33;;;;;;;1.27;1.17;;;17.70;99.90;;;;;;5114628;28;20112;-66
2023/07/29 03:06:04;;;;;;;0.50;0.50;;;17.10;99.90;;;;;;5115608;28;20060;-65
2023/07/29 03:08:29;;;;;;;0.43;0.43;;;17.30;99.90;;;;;;5115308;28;20067;-65
2023/07/29 03:10:56;;;;;;;1.73;1.00;;;17.70;99.90;;;;;;5114630;28;20136;-66
2023/07/29 03:13:22;;;;;;;0.30;0.30;;;17.70;99.90;;;;;;5115295;27;20101;-66
2023/07/29 03:15:48;;;;;;;0.90;0.85;;;17.10;99.90;;;;;;5115187;27;20800;-67
2023/07/29 03:18:15;;;;;;;0.28;0.28;;;17.20;99.90;;;;;;5114426;28;20487;-65
2023/07/29 03:20:40;;;;;;;0.32;0.32;;;17.50;99.90;;;;;;5113739;28;20047;-65
2023/07/29 03:23:06;;;;;;;0.47;0.47;;;17.20;99.90;;;;;;5115143;28;20058;-68
2023/07/29 03:25:32;;;;;;;0.50;0.50;;;17.40;99.90;;;;;;5114319;28;20050;-66
2023/07/29 03:27:58;;;;;;;0.57;0.57;;;16.60;99.90;;;;;;5115090;28;20074;-65
2023/07/29 03:30:23;;;;;;;0.93;0.70;;;17.00;99.90;;;;;;5114617;28;20392;-66
2023/07/29 03:32:50;;;;;;;0.63;0.60;;;17.10;99.90;;;;;;5114381;28;20054;-66
2023/07/29 03:35:16;;;;;;;0.50;0.50;;;16.90;99.90;;;;;;5114878;28;20123;-65
2023/07/29 03:37:41;;;;;;;;;;;17.10;99.90;;;;;;5113809;28;20135;-66
2023/07/29 03:40:09;;;;;;;0.80;0.80;;;17.30;99.90;;;;;;5114266;28;19947;-67
2023/07/29 03:42:35;;;;;;;1.13;1.00;;;16.90;99.90;;;;;;5114574;27;20052;-65
2023/07/29 03:45:00;;;;;;;0.52;0.52;;;16.70;99.90;;;;;;5113604;28;20082;-65
2023/07/29 03:47:27;;;;;;;0.40;0.40;;;16.40;99.90;;;;;;5114236;28;20079;-66
2023/07/29 03:49:52;;;;;;;0.30;0.30;;;16.80;99.90;;;;;;5114531;28;20058;-68
2023/07/29 03:52:18;;;;;;;;;;;16.30;99.90;;;;;;5115184;28;20047;-65
2023/07/29 03:54:44;;;;;;;0.32;0.32;;;16.20;99.90;;;;;;5114012;28;20002;-64
2023/07/29 03:57:09;;;;;;;0.50;0.50;;;16.80;99.90;;;;;;5114480;28;20528;-65
2023/07/29 03:59:35;;;;;;;0.40;0.38;;;16.20;99.90;;;;;;5114024;28;20177;-65
2023/07/29 04:02:01;;;;;;;1.02;1.00;;;16.80;99.90;;;;;;5114427;28;20100;-65
2023/07/29 04:04:26;;;;;;;;;;;16.80;99.90;;;;;;5113777;28;20052;-65
2023/07/29 04:06:52;;;;;;;0.93;0.70;;;16.70;99.90;;;;;;5114402;28;19919;-64
2023/07/29 04:09:18;;;;;;;1.02;0.93;;;16.20;99.90;;;;;;5113779;28;20646;-66
2023/07/29 04:11:43;;;;;;;0.55;0.52;;;14.80;99.90;;;;;;5113651;28;20048;-67
2023/07/29 04:14:09;;;;;;;;;;;16.70;99.90;;;;;;5114642;28;20035;-66
2023/07/29 04:16:35;;;;;;;3.58;1.23;;;17.00;99.90;;;;;;5114105;28;19919;-65
2023/07/29 04:19:00;;;;;;;;;;;16.40;99.90;;;;;;5113800;28;20039;-65
2023/07/29 04:21:26;;;;;;;0.47;0.47;;;16.60;99.90;;;;;;5113824;28;19959;-65
2023/07/29 04:23:52;;;;;;;;;;;16.30;99.90;;;;;;5114210;28;20039;-66
2023/07/29 04:26:17;;;;;;;4.95;1.45;;;16.70;99.90;;;;;;5113241;28;19991;-66
2023/07/29 04:28:43;;;;;;;;;;;16.90;99.90;;;;;;5114119;28;20411;-66
2023/07/29 04:31:08;;;;;;;0.88;0.85;;;17.30;99.90;;;;;;5113866;28;20030;-65
2023/07/29 04:33:34;;;;;;;1.17;0.40;;;16.40;99.90;;;;;;5113069;28;20044;-68
2023/07/29 04:36:00;;;;;;;;;;;16.50;99.90;;;;;;5113914;28;20051;-65
2023/07/29 04:38:32;;;;;;;0.13;0.13;;;16.90;99.90;;;;;;5113615;28;19920;-64
2023/07/29 04:41:00;;;;;;;0.30;0.30;;;16.80;99.90;;;;;;5113190;28;20047;-66
2023/07/29 04:43:33;;;;;;;0.22;0.20;;;17.00;99.90;;;;;;5113233;28;20526;-65
2023/07/29 04:45:59;;;;;;;0.30;0.30;;;16.50;99.90;;;;;;5113385;27;20517;-65
2023/07/29 04:48:24;;;;;;;;;;;16.80;99.90;;;;;;5113293;28;20151;-66
2023/07/29 04:50:50;;;;;;;1.20;1.10;;;16.60;99.90;;;;;;5113254;28;19931;-65
2023/07/29 04:53:16;;;;;;;0.30;0.30;;;17.50;99.90;;;;;;5113515;28;20043;-65
2023/07/29 04:55:42;;;;;;;;;;;17.40;99.90;;;;;;5112881;28;20071;-65
2023/07/29 04:58:08;;;;;;;0.10;0.10;;;16.80;99.90;;;;;;5113511;28;19926;-65
2023/07/29 05:00:34;;;;;;;0.43;0.43;;;17.10;99.90;;;;;;5112948;28;20146;-66
2023/07/29 05:02:59;;;;;;;;;;;17.10;99.90;;;;;;5113048;28;20055;-65
2023/07/29 05:05:25;;;;;;;0.20;0.20;;;16.90;99.90;;;;;;5111322;28;19928;-66
2023/07/29 05:07:51;;;;;;;0.77;0.63;;;17.50;99.90;;;;;;5112879;28;20138;-65
2023/07/29 05:10:16;;;;;;;0.30;0.30;;;17.10;99.90;;;;;;5112574;28;20043;-64
2023/07/29 05:12:42;;;;;;;;;;;17.10;99.90;;;;;;5112391;28;20043;-66
2023/07/29 05:15:08;;;;;;;0.10;0.10;;;17.20;99.90;;;;;;5112928;28;19924;-65
2023/07/29 05:17:34;;;;;;;0.52;0.50;;;17.10;99.90;;;;;;5112103;28;20583;-65
2023/07/29 05:19:59;;;;;;;0.10;0.10;;;17.10;99.90;;;;;;5112830;28;20126;-66
2023/07/29 05:22:25;;;;;;;;;;;17.30;99.90;;;;;;5113013;28;20055;-66
2023/07/29 05:24:51;;;;;;;0.20;0.20;;;17.20;99.90;;;;;;5112206;28;19923;-65
2023/07/29 05:27:16;;;;;;;;;;;17.10;99.90;;;;;;5111688;28;20083;-66
2023/07/29 05:29:42;;;;;;;0.10;0.10;;;16.90;99.90;;;;;;5112459;28;19927;-67
2023/07/29 05:32:07;;;;;;;;;;;17.80;99.90;;;;;;5112403;28;20040;-66
2023/07/29 05:34:33;;;;;;;1.77;0.38;;;17.20;99.90;;;;;;5112398;28;19950;-65
2023/07/29 05:36:59;;;;;;;0.73;0.50;;;17.30;99.90;;;;;;5112519;28;20101;-66
2023/07/29 05:39:25;;;;;;;0.45;0.45;;;17.00;99.90;;;;;;5111723;28;20079;-65
2023/07/29 05:41:50;;;;;;;0.60;0.22;;;17.20;99.90;;;;;;5112467;28;20079;-65
2023/07/29 05:44:16;;;;;;;2.22;0.50;;;17.60;99.90;;;;;;5112159;28;20771;-66
2023/07/29 05:46:42;;;;;;;0.10;0.10;;;17.50;99.90;;;;;;5111984;28;20047;-66
2023/07/29 05:49:07;;;;;;;0.10;0.10;;;17.60;99.90;;;;;;5112188;28;20086;-64
2023/07/29 05:51:33;;;;;;;0.45;0.30;;;17.40;99.90;;;;;;5112276;28;20130;-64
2023/07/29 05:53:59;;;;;;;0.25;0.25;;;17.30;99.90;;;;;;5111828;28;20486;-64
2023/07/29 05:56:24;;;;;;;0.15;0.15;;;17.60;99.90;;;;;;5111861;28;20151;-65
2023/07/29 05:58:50;;;;;;;0.20;0.20;;;17.20;99.90;;;;;;5112347;28;20052;-66
2023/07/29 06:01:15;;;;;;;0.30;0.30;;;17.40;99.90;;;;;;5111531;28;20047;-66
2023/07/29 06:03:41;;;;;;;1.65;0.95;;;17.00;99.90;;;;;;5112211;28;20039;-65
2023/07/29 06:06:07;;;;;;;0.52;0.52;;;17.50;99.90;;;;;;5111216;28;20060;-65
2023/07/29 06:08:34;;;;;;;0.10;0.10;;;17.30;99.90;;;;;;5111642;28;20492;-67
2023/07/29 06:11:00;;;;;;;0.65;0.40;;;17.30;99.90;;;;;;5111708;28;20487;-66
2023/07/29 06:13:26;;;;;;;0.47;0.47;;;17.90;99.90;;;;;;5111927;28;20047;-66
2023/07/29 06:15:51;;;;;;;0.43;0.43;;;17.50;99.90;;;;;;5111269;28;20410;-65
2023/07/29 06:18:17;;;;;;;0.10;0.10;;;17.40;99.90;;;;;;5111671;28;20047;-65
2023/07/29 06:20:43;;;;;;;0.13;0.13;;;17.80;99.90;;;;;;5107381;27;20138;-65
2023/07/29 06:23:08;;;;;;;0.20;0.20;;;17.50;99.90;;;;;;5111148;28;20050;-67
2023/07/29 06:25:34;;;;;;;0.50;0.50;;;17.90;99.90;;;;;;5098001;28;20120;-66
2023/07/29 06:28:00;;;;;;;0.13;0.13;;;17.70;99.90;;;;;;5102726;28;20064;-66
2023/07/29 06:30:25;;;;;;;0.88;0.55;;;17.60;99.90;;;;;;5102742;28;20050;-66
2023/07/29 06:32:51;;;;;;;0.32;0.32;;;17.70;99.90;;;;;;5110605;28;20078;-66
2023/07/29 06:35:17;;;;;;;0.55;0.55;;;18.00;99.90;;;;;;5110230;28;20055;-65
2023/07/29 06:37:42;;;;;;;0.35;0.30;;;18.30;99.90;;;;;;5111659;28;20073;-65
2023/07/29 06:40:09;;;;;;;1.52;1.42;;;18.30;99.90;;;;;;5110489;28;20471;-65
2023/07/29 06:42:34;;;;;;;0.73;0.40;;;18.30;99.90;;;;;;5111594;28;20051;-65
2023/07/29 06:45:00;;;;;;;2.55;0.73;;;18.30;99.90;;;;;;5111568;28;20042;-65
2023/07/29 06:47:26;;;;;;;0.20;0.20;;;18.00;99.90;;;;;;5111114;28;20126;-66
2023/07/29 06:49:53;;;;;;;0.65;0.57;;;18.50;99.90;;;;;;5111272;28;20501;-65
2023/07/29 06:52:19;;;;;;;0.32;0.17;;;18.30;99.90;;;;;;5111440;28;20047;-65
2023/07/29 06:54:44;;;;;;;6.15;0.88;;;18.80;99.90;;;;;;5110454;28;20479;-66
2023/07/29 06:57:10;;;;;;;0.35;0.30;;;18.10;99.90;;;;;;5111151;28;20052;-65
2023/07/29 06:59:36;;;;;;;0.20;0.20;;;18.10;99.90;;;;;;5111254;28;20097;-66
2023/07/29 07:02:02;;;;;;;0.30;0.30;;;18.60;99.90;;;;;;5110622;28;20035;-65
2023/07/29 07:04:27;;;;;;;0.10;0.10;;;18.60;99.90;;;;;;5110630;28;20056;-65
2023/07/29 07:06:53;;;;;;;0.50;0.50;;;18.90;99.90;;;;;;5111050;28;20094;-65
2023/07/29 07:09:19;;;;;;;0.20;0.20;;;18.90;99.90;;;;;;5110531;28;20058;-65
2023/07/29 07:11:45;;;;;;;0.30;0.30;;;18.90;99.90;;;;;;5109699;28;20051;-68
2023/07/29 07:14:11;;;;;;;0.20;0.20;;;19.40;99.90;;;;;;5111315;28;20081;-68
2023/07/29 07:16:39;;;;;;;0.20;0.20;;;19.20;99.90;;;;;;5108012;28;20116;-66
2023/07/29 07:19:05;;;;;;;0.30;0.20;;;19.00;99.90;;;;;;5114097;28;20084;-64
2023/07/29 07:21:32;;;;;;;1.50;0.88;;;19.30;99.90;;;;;;5115235;28;20044;-66
2023/07/29 07:23:58;;;;;;;0.25;0.25;;;19.30;99.90;;;;;;5113821;28;20048;-65
2023/07/29 07:26:24;;;;;;;9.32;0.80;;;19.10;99.90;;;;;;5115098;28;20527;-65
2023/07/29 07:28:51;;;;;;;0.47;0.47;;;19.00;99.90;;;;;;5115009;28;20074;-65
2023/07/29 07:31:17;;;;;;;0.47;0.47;;;18.90;99.90;;;;;;5114908;28;20047;-66
2023/07/29 07:33:42;;;;;;;1.45;0.45;;;19.30;99.90;;;;;;5114730;28;20058;-66
2023/07/29 07:36:08;;;;;;;0.30;0.30;;;18.80;99.90;;;;;;5114982;28;20042;-65
2023/07/29 07:38:34;;;;;;;0.10;0.10;;;18.60;99.90;;;;;;5114923;28;20047;-65
2023/07/29 07:41:00;;;;;;;0.60;0.60;;;18.80;99.90;;;;;;5114878;28;20181;-65
2023/07/29 07:43:25;;;;;;;2.88;0.88;;;19.10;99.90;;;;;;5114720;28;20044;-65
2023/07/29 07:45:57;;;;;;;0.20;0.20;;;18.80;99.90;;;;;;5114586;28;20044;-66
2023/07/29 07:48:23;;;;;;;0.93;0.73;;;19.10;99.90;;;;;;5114534;28;20095;-66
2023/07/29 07:50:48;;;;;;;13.05;2.22;;;19.00;99.90;;;;;;5114701;28;20130;-67
2023/07/29 07:53:14;;;;;;;0.17;0.17;;;19.50;99.90;;;;;;5114620;28;20589;-66
2023/07/29 07:55:40;;;;;;;0.30;0.30;;;19.40;99.90;;;;;;5107573;28;20063;-67
2023/07/29 07:58:05;;;;;;;0.20;0.20;;;19.70;99.90;;;;;;5109721;28;20408;-65
2023/07/29 08:00:31;;;;;;;0.57;0.57;;;19.50;99.90;;;;;;5113271;28;20048;-66
2023/07/29 08:02:56;;;;;;;2.72;0.80;;;19.80;99.90;;;;;;5112988;28;20051;-65
2023/07/29 08:05:22;;;;;;;0.63;0.60;;;19.90;99.90;;;;;;5110588;28;20095;-66
2023/07/29 08:07:48;;;;;;;0.43;0.43;;;19.90;99.90;;;;;;5113733;28;20043;-65
2023/07/29 08:10:13;;;;;;;1.38;1.05;;;20.00;99.90;;;;;;5113793;28;20083;-66
2023/07/29 08:12:39;;;;;;;0.38;0.38;;;20.20;99.90;;;;;;5113726;28;20799;-65
2023/07/29 08:15:05;;;;;;;0.20;0.20;;;20.20;99.90;;;;;;5113690;28;20043;-68
2023/07/29 08:17:31;;;;;;;0.35;0.35;;;20.10;99.90;;;;;;5113234;28;21612;-67
2023/07/29 08:19:56;;;;;;;0.20;0.20;;;20.40;99.90;;;;;;5113402;28;20040;-68
2023/07/29 08:22:22;;;;;;;0.68;0.68;;;20.50;99.90;;;;;;5113495;28;20078;-66
2023/07/29 08:24:48;;;;;;;1.55;0.68;;;20.60;99.90;;;;;;5113531;27;20604;-67
2023/07/29 08:27:13;;;;;;;5.60;0.45;;;20.50;99.90;;;;;;5113374;28;20044;-66
2023/07/29 08:29:39;;;;;;;0.30;0.30;;;20.50;99.90;;;;;;5111333;28;20052;-66
2023/07/29 08:32:05;;;;;;;0.17;0.17;;;20.40;99.90;;;;;;5113361;28;20044;-66
2023/07/29 08:34:30;;;;;;;0.35;0.35;;;20.20;99.90;;;;;;5113117;28;20877;-65
2023/07/29 08:36:56;;;;;;;1.65;1.55;;;20.30;99.90;;;;;;5112426;28;20120;-69
2023/07/29 08:39:22;;;;;;;0.47;0.40;;;20.50;99.90;;;;;;5113218;28;20044;-66
2023/07/29 08:42:08;;;;;;;0.30;0.30;;;20.50;99.90;;;;;;5113326;27;20044;-67
2023/07/29 08:44:44;;;;;;;0.38;0.38;;;20.40;99.90;;;;;;5112804;27;20404;-68
2023/07/29 08:47:13;;;;;;;0.55;0.55;;;20.60;99.90;;;;;;5113303;28;20044;-69
2023/07/29 08:49:40;;;;;;;0.22;0.22;;;20.80;99.90;;;;;;5112662;28;20055;-73
2023/07/29 08:52:08;;;;;;;0.47;0.15;;;21.10;99.90;;;;;;5113081;28;20035;-65
2023/07/29 08:54:35;;;;;;;9.50;0.30;;;21.00;99.90;;;;;;5112737;28;20518;-66
2023/07/29 08:57:01;;;;;;;0.30;0.30;;;21.00;99.90;;;;;;5112596;28;20039;-67
2023/07/29 08:59:28;;;;;;;2.22;1.48;;;20.90;99.90;;;;;;5112477;28;20570;-71
2023/07/29 09:01:57;;;;;;;0.88;0.52;;;20.60;99.90;;;;;;5112887;28;20047;-66
2023/07/29 09:04:23;;;;;;;0.90;0.90;;;20.90;99.90;;;;;;5112099;28;20116;-69
2023/07/29 09:06:51;;;;;;;0.55;0.55;;;20.80;99.90;;;;;;5112604;28;20548;-66
2023/07/29 09:09:17;;;;;;;0.35;0.35;;;20.90;99.90;;;;;;5112019;28;20139;-66
2023/07/29 09:11:43;;;;;;;0.10;0.10;;;20.80;99.90;;;;;;5112448;28;20126;-67
2023/07/29 09:14:10;;;;;;;0.17;0.17;;;21.20;99.90;;;;;;5112485;28;20031;-68
2023/07/29 09:16:37;;;;;;;0.17;0.17;;;21.00;99.90;;;;;;5112564;28;20051;-68
2023/07/29 09:19:03;;;;;;;0.52;0.28;;;20.90;99.90;;;;;;5112019;28;20035;-65
2023/07/29 09:21:29;;;;;;;0.35;0.35;;;21.00;99.90;;;;;;5112707;28;20048;-65
2023/07/29 09:23:55;;;;;;;0.20;0.20;;;20.70;99.90;;;;;;5112187;28;20128;-64
2023/07/29 09:26:28;;;;;;;0.35;0.25;;;21.50;99.90;;;;;;5110747;28;20518;-65
2023/07/29 09:28:58;;;;;;;0.10;0.10;;;21.20;99.90;;;;;;5112001;28;20514;-65
2023/07/29 09:31:25;;;;;;;0.10;0.10;;;21.90;99.90;;;;;;5112052;28;20449;-65
2023/07/29 09:34:03;;;;;;;0.20;0.20;;;21.90;99.90;;;;;;5108965;28;20483;-71
2023/07/29 09:36:31;;;;;;;0.10;0.10;;;21.70;99.90;;;;;;5106858;28;20063;-65
2023/07/29 09:38:58;;;;;;;0.00;0.00;;;21.70;99.90;;;;;;5111564;28;20443;-66
2023/07/29 09:41:28;;;;;;;0.38;0.38;;;21.70;99.90;;;;;;5110931;28;20036;-65
2023/07/29 09:43:58;;;;;;;0.08;0.08;;;21.40;99.90;;;;;;5110961;28;20048;-65
2023/07/29 09:46:26;;;;;;;0.80;0.50;;;21.20;99.90;;;;;;5110979;28;20052;-64
2023/07/29 09:48:56;;;;;;;0.20;0.20;;;22.00;99.90;;;;;;5110691;28;20043;-65
2023/07/29 09:51:22;;;;;;;1.00;0.90;;;21.30;99.90;;;;;;5110326;28;20051;-67
2023/07/29 09:53:49;;;;;;;0.10;0.10;;;21.60;99.90;;;;;;5109298;28;20050;-65
2023/07/29 09:56:16;;;;;;;0.52;0.30;;;21.30;99.90;;;;;;5111376;28;20069;-65
2023/07/29 09:58:45;;;;;;;0.10;0.10;;;21.20;99.90;;;;;;5110838;28;20112;-66
2023/07/29 10:01:11;;;;;;;1.00;0.30;;;21.60;99.90;;;;;;5111364;28;20062;-67
2023/07/29 10:03:37;;;;;;;0.10;0.10;;;21.40;99.90;;;;;;5110737;28;20051;-66
2023/07/29 10:06:07;;;;;;;1.00;0.45;;;21.40;99.90;;;;;;5110113;28;20048;-65
2023/07/29 10:08:35;;;;;;;0.00;0.00;;;21.70;99.90;;;;;;5111316;28;20392;-65
2023/07/29 10:11:06;;;;;;;0.30;0.30;;;21.70;99.90;;;;;;5108659;28;20430;-65
2023/07/29 10:13:33;;;;;;;0.30;0.30;;;21.60;99.90;;;;;;5110087;28;20461;-67
2023/07/29 10:16:03;;;;;;;0.00;0.00;;;21.90;99.90;;;;;;5111429;28;20372;-64
2023/07/29 10:18:30;;;;;;;0.90;0.60;;;21.70;99.90;;;;;;5110730;28;20326;-65
2023/07/29 10:20:58;;;;;;;1.15;0.30;;;22.30;99.90;;;;;;5111727;28;20042;-65
2023/07/29 10:23:26;;;;;;;0.20;0.20;;;22.10;99.90;;;;;;5111441;28;20051;-65
2023/07/29 10:26:01;;;;;;;0.10;0.10;;;22.10;99.90;;;;;;5111749;28;20048;-65
2023/07/29 10:28:30;;;;;;;1.80;1.10;;;21.70;99.90;;;;;;5111618;28;20043;-64
2023/07/29 10:30:57;;;;;;;0.00;0.00;;;21.90;99.90;;;;;;5111600;28;20051;-66
2023/07/29 10:33:23;;;;;;;0.22;0.10;;;22.10;99.90;;;;;;5111222;28;20055;-67
2023/07/29 10:35:49;;;;;;;0.10;0.10;;;21.90;99.90;;;;;;5099707;28;20514;-65
2023/07/29 10:38:15;;;;;;;0.73;0.40;;;22.50;99.90;;;;;;5092084;28;20044;-65
2023/07/29 10:40:52;;;;;;;0.00;0.00;;;22.50;99.90;;;;;;5111094;28;20051;-65
2023/07/29 10:43:24;;;;;;;0.40;0.40;;;22.10;99.90;;;;;;5110148;28;20508;-67
2023/07/29 10:45:49;;;;;;;0.17;0.17;;;22.10;99.90;;;;;;5110928;28;20051;-64
2023/07/29 10:48:36;;;;;;;0.13;0.13;;;22.20;99.90;;;;;;5110748;28;20422;-65
2023/07/29 10:51:36;;;;;;;0.30;0.30;;;22.30;99.90;;;;;;5108942;28;20510;-64
2023/07/29 10:54:16;;;;;;;0.32;0.10;;;23.00;99.90;;;;;;5113795;28;20402;-64
2023/07/29 10:56:46;;;;;;;0.00;0.00;;;23.00;99.90;;;;;;5114930;28;20058;-65
2023/07/29 10:59:12;;;;;;;0.17;0.17;;;23.10;99.90;;;;;;5112977;28;20051;-66
2023/07/29 11:01:43;;;;;;;0.20;0.20;;;23.50;99.90;;;;;;5113551;28;20100;-64
2023/07/29 11:04:23;;;;;;;0.28;0.28;;;23.20;99.90;;;;;;5113983;28;20457;-66
2023/07/29 11:07:07;;;;;;;0.10;0.10;;;22.90;99.90;;;;;;5113925;28;20055;-66
2023/07/29 11:09:49;;;;;;;0.10;0.10;;;22.20;99.90;;;;;;5114536;28;20055;-65
2023/07/29 11:12:38;;;;;;;0.10;0.10;;;21.50;99.90;;;;;;5114507;28;20150;-69
2023/07/29 11:15:09;;;;;;;0.10;0.10;;;21.50;99.90;;;;;;5114509;28;20043;-65
2023/07/29 11:17:36;;;;;;;0.17;0.17;;;21.50;99.90;;;;;;5114021;28;20048;-70
2023/07/29 11:20:03;;;;;;;0.20;0.20;;;21.40;99.90;;;;;;5113744;28;20055;-69
2023/07/29 11:22:30;;;;;;;0.00;0.00;;;21.90;99.90;;;;;;5114321;28;20135;-66
2023/07/29 11:24:56;;;;;;;0.10;0.10;;;22.10;99.90;;;;;;5114216;28;20081;-68
2023/07/29 11:27:21;;;;;;;0.20;0.20;;;22.40;99.90;;;;;;5111377;27;20055;-71
2023/07/29 11:29:48;;;;;;;0.03;0.03;;;22.20;99.90;;;;;;5104162;28;20507;-65
2023/07/29 11:32:14;;;;;;;0.32;0.20;;;22.10;99.90;;;;;;5113769;28;20044;-69
2023/07/29 11:34:40;;;;;;;1.27;0.52;;;21.90;99.90;;;;;;5114351;28;20051;-67
2023/07/29 11:37:06;;;;;;;0.60;0.60;;;21.60;99.90;;;;;;5114257;28;20839;-66
2023/07/29 11:39:33;;;;;;;0.28;0.20;;;21.40;99.90;;;;;;5113136;28;20131;-66
2023/07/29 11:41:59;;;;;;;0.93;0.30;;;20.70;99.90;;;;;;5113733;28;20051;-67
2023/07/29 11:44:28;;;;;;;0.40;0.40;;;20.40;99.90;;;;;;5113165;28;20062;-66
2023/07/29 11:46:54;;;;;;;0.35;0.35;;;19.80;99.90;;;;;;5114053;28;20109;-65
2023/07/29 11:49:19;;;;;;;0.20;0.20;;;19.80;99.90;;;;;;5113924;28;20047;-65
2023/07/29 11:51:46;;;;;;;0.32;0.32;;;19.50;99.90;;;;;;5112832;28;20047;-67
2023/07/29 11:54:12;;;;;;;0.22;0.20;;;19.70;99.90;;;;;;5113968;28;20044;-65
2023/07/29 11:56:38;;;;;;;0.55;0.35;;;19.60;99.90;;;;;;5113870;28;20044;-66
2023/07/29 11:59:04;;;;;;;0.88;0.38;;;19.60;99.90;;;;;;5113892;28;20047;-66
2023/07/29 12:01:31;;;;;;;0.40;0.40;;;19.80;99.90;;;;;;5113978;28;20453;-65
2023/07/29 12:03:57;;;;;;;0.30;0.30;;;19.90;99.90;;;;;;5112705;28;20044;-69
2023/07/29 12:06:24;;;;;;;5.15;1.75;;;20.10;99.90;;;;;;5113069;28;20059;-67
2023/07/29 12:08:51;;;;;;;0.08;0.08;;;20.30;99.90;;;;;;5113533;28;20517;-68
2023/07/29 12:11:17;;;;;;;0.20;0.20;;;20.50;99.90;;;;;;5112046;28;20134;-67
2023/07/29 12:13:44;;;;;;;0.47;0.47;;;20.90;99.90;;;;;;5113862;28;20131;-69
2023/07/29 12:16:09;;;;;;;2.95;0.40;;;21.00;99.90;;;;;;5112888;28;20555;-67
2023/07/29 12:18:36;;;;;;;0.45;0.45;;;20.60;99.90;;;;;;5113607;28;20126;-69
2023/07/29 12:21:03;;;;;;;0.30;0.30;;;20.50;99.90;;;;;;5114040;28;20047;-66
2023/07/29 12:23:29;;;;;;;0.13;0.13;;;20.80;99.90;;;;;;5113964;28;20072;-67
2023/07/29 12:25:59;;;;;;;0.22;0.22;;;21.00;99.90;;;;;;5112762;28;20039;-67
2023/07/29 12:28:30;;;;;;;0.88;0.40;;;21.00;99.90;;;;;;5114007;27;20131;-67
2023/07/29 12:30:56;;;;;;;0.00;0.00;;;20.80;99.90;;;;;;5114045;28;20047;-67
2023/07/29 12:33:32;;;;;;;0.10;0.10;;;20.90;99.90;;;;;;5113867;28;20157;-68
2023/07/29 12:35:58;;;;;;;;;;;20.50;99.90;;;;;;5114051;28;20052;-67
2023/07/29 12:38:26;;;;;;;0.10;0.10;;;20.40;99.90;;;;;;5113573;28;20029;-67
2023/07/29 12:40:52;;;;;;;2.58;0.45;;;20.50;99.90;;;;;;5113754;28;20047;-66
2023/07/29 12:43:18;;;;;;;0.15;0.15;;;20.50;99.90;;;;;;5113654;28;20633;-67
2023/07/29 12:45:43;;;;;;;1.25;0.63;;;20.60;99.90;;;;;;5113364;27;20130;-67
2023/07/29 12:48:10;;;;;;;0.88;0.70;;;20.30;99.90;;;;;;5113477;28;20084;-69
2023/07/29 12:50:36;;;;;;;0.08;0.08;;;19.90;99.90;;;;;;5113403;28;20055;-68